sensor_id;sensor_type;location;lat;lon;timestamp;temperature;humidity
21123;DHT22;10719;48.130;11.630;2023-06-14T00:00:42;13.00;99.90
21123;DHT22;10719;48.130;11.630;2023-06-14T00:03:08;13.00;99.90
21123;DHT22;10719;48.130;11.630;2023-06-14T00:05:38;12.90;99.90
21123;DHT22;10719;48.130;11.630;2023-06-14T00:08:09;12.90;99.90
21123;DHT22;10719;48.130;11.630;2023-06-14T00:10:35;12.80;99.90
21123;DHT22;10719;48.130;11.630;2023-06-14T00:13:04;12.80;99.90
21123;DHT22;10719;48.130;11.630;2023-06-14T00:15:31;12.70;99.90
21123;DHT22;10719;48.130;11.630;2023-06-14T00:17:57;12.70;99.90
21123;DHT22;10719;48.130;11.630;2023-06-14T00:20:29;12.70;99.90
21123;DHT22;10719;48.130;11.630;2023-06-14T00:22:56;12.70;99.90
21123;DHT22;10719;48.130;11.630;2023-06-14T00:25:22;12.70;99.90
21123;DHT22;10719;48.130;11.630;2023-06-14T00:27:49;12.60;99.90
21123;DHT22;10719;48.130;11.630;2023-06-14T00:30:14;12.50;99.90
21123;DHT22;10719;48.130;11.630;2023-06-14T00:32:40;12.50;99.90
21123;DHT22;10719;48.130;11.630;2023-06-14T00:35:08;12.50;99.90
21123;DHT22;10719;48.130;11.630;2023-06-14T00:37:35;12.40;99.90
21123;DHT22;10719;48.130;11.630;2023-06-14T00:40:00;12.40;99.90
21123;DHT22;10719;48.130;11.630;2023-06-14T00:42:27;12.40;99.90
21123;DHT22;10719;48.130;11.630;2023-06-14T00:44:53;12.30;99.90
21123;DHT22;10719;48.130;11.630;2023-06-14T00:47:19;12.30;99.90
21123;DHT22;10719;48.130;11.630;2023-06-14T00:49:52;12.20;99.90
21123;DHT22;10719;48.130;11.630;2023-06-14T00:52:19;12.10;99.90
21123;DHT22;10719;48.130;11.630;2023-06-14T00:54:45;12.10;99.90
21123;DHT22;10719;48.130;11.630;2023-06-14T00:57:11;12.10;99.90
21123;DHT22;10719;48.130;11.630;2023-06-14T00:59:48;12.10;99.90
21123;DHT22;10719;48.130;11.630;2023-06-14T01:02:14;12.10;99.90
21123;DHT22;10719;48.130;11.630;2023-06-14T01:04:41;12.10;99.90
21123;DHT22;10719;48.130;11.630;2023-06-14T01:12:35;12.10;99.90
21123;DHT22;10719;48.130;11.630;2023-06-14T01:15:03;12.00;99.90
21123;DHT22;10719;48.130;11.630;2023-06-14T01:17:30;11.90;99.90
21123;DHT22;10719;48.130;11.630;2023-06-14T01:20:00;11.90;99.90
21123;DHT22;10719;48.130;11.630;2023-06-14T01:22:26;11.90;99.90
21123;DHT22;10719;48.130;11.630;2023-06-14T01:24:53;11.90;99.90
21123;DHT22;10719;48.130;11.630;2023-06-14T01:27:23;11.80;99.90
21123;DHT22;10719;48.130;11.630;2023-06-14T01:29:51;11.80;99.90
21123;DHT22;10719;48.130;11.630;2023-06-14T01:32:23;11.80;99.90
21123;DHT22;10719;48.130;11.630;2023-06-14T01:34:48;11.80;99.90
21123;DHT22;10719;48.130;11.630;2023-06-14T01:37:14;11.90;99.90
21123;DHT22;10719;48.130;11.630;2023-06-14T01:39:42;11.90;99.90
21123;DHT22;10719;48.130;11.630;2023-06-14T01:42:09;11.90;99.90
21123;DHT22;10719;48.130;11.630;2023-06-14T01:44:37;11.90;99.90
21123;DHT22;10719;48.130;11.630;2023-06-14T01:47:02;11.80;99.90
21123;DHT22;10719;48.130;11.630;2023-06-14T01:49:28;11.80;99.90
21123;DHT22;10719;48.130;11.630;2023-06-14T01:51:54;11.70;99.90
21123;DHT22;10719;48.130;11.630;2023-06-14T01:54:20;11.60;99.90
21123;DHT22;10719;48.130;11.630;2023-06-14T01:56:47;11.50;99.90
21123;DHT22;10719;48.130;11.630;2023-06-14T01:59:12;11.30;99.90
21123;DHT22;10719;48.130;11.630;2023-06-14T02:01:38;11.30;99.90
21123;DHT22;10719;48.130;11.630;2023-06-14T02:04:03;11.30;99.90
21123;DHT22;10719;48.130;11.630;2023-06-14T02:06:30;11.50;99.90
21123;DHT22;10719;48.130;11.630;2023-06-14T02:08:55;11.40;99.90
21123;DHT22;10719;48.130;11.630;2023-06-14T02:11:21;11.40;99.90
21123;DHT22;10719;48.130;11.630;2023-06-14T02:13:46;11.40;99.90
21123;DHT22;10719;48.130;11.630;2023-06-14T02:16:12;11.40;99.90
21123;DHT22;10719;48.130;11.630;2023-06-14T02:18:38;11.40;99.90
21123;DHT22;10719;48.130;11.630;2023-06-14T02:21:03;11.40;99.90
21123;DHT22;10719;48.130;11.630;2023-06-14T02:23:29;11.50;99.90
21123;DHT22;10719;48.130;11.630;2023-06-14T02:25:54;11.50;99.90
21123;DHT22;10719;48.130;11.630;2023-06-14T02:28:20;11.50;99.90
21123;DHT22;10719;48.130;11.630;2023-06-14T02:30:46;11.40;99.90
21123;DHT22;10719;48.130;11.630;2023-06-14T02:33:11;11.40;99.90
21123;DHT22;10719;48.130;11.630;2023-06-14T02:35:38;11.30;99.90
21123;DHT22;10719;48.130;11.630;2023-06-14T02:38:04;11.30;99.90
21123;DHT22;10719;48.130;11.630;2023-06-14T02:40:29;11.10;99.90
21123;DHT22;10719;48.130;11.630;2023-06-14T02:42:55;11.10;99.90
21123;DHT22;10719;48.130;11.630;2023-06-14T02:45:20;11.10;99.90
21123;DHT22;10719;48.130;11.630;2023-06-14T02:47:46;10.90;99.90
21123;DHT22;10719;48.130;11.630;2023-06-14T02:50:12;10.90;99.90
21123;DHT22;10719;48.130;11.630;2023-06-14T02:52:37;10.90;99.90
21123;DHT22;10719;48.130;11.630;2023-06-14T02:55:04;10.90;99.90
21123;DHT22;10719;48.130;11.630;2023-06-14T02:57:30;10.80;99.90
21123;DHT22;10719;48.130;11.630;2023-06-14T02:59:55;10.80;99.90
21123;DHT22;10719;48.130;11.630;2023-06-14T03:02:21;10.70;99.90
21123;DHT22;10719;48.130;11.630;2023-06-14T03:04:46;10.60;99.90
21123;DHT22;10719;48.130;11.630;2023-06-14T03:07:12;10.60;99.90
21123;DHT22;10719;48.130;11.630;2023-06-14T03:09:39;10.50;99.90
21123;DHT22;10719;48.130;11.630;2023-06-14T03:12:06;10.50;99.90
21123;DHT22;10719;48.130;11.630;2023-06-14T03:14:32;10.50;99.90
21123;DHT22;10719;48.130;11.630;2023-06-14T03:16:58;10.40;99.90
21123;DHT22;10719;48.130;11.630;2023-06-14T03:19:24;10.40;99.90
21123;DHT22;10719;48.130;11.630;2023-06-14T03:21:51;10.40;99.90
21123;DHT22;10719;48.130;11.630;2023-06-14T03:24:17;10.40;99.90
21123;DHT22;10719;48.130;11.630;2023-06-14T03:26:43;10.40;99.90
21123;DHT22;10719;48.130;11.630;2023-06-14T03:29:08;10.40;99.90
21123;DHT22;10719;48.130;11.630;2023-06-14T03:31:34;10.40;99.90
21123;DHT22;10719;48.130;11.630;2023-06-14T03:34:03;10.40;99.90
21123;DHT22;10719;48.130;11.630;2023-06-14T03:36:29;10.40;99.90
21123;DHT22;10719;48.130;11.630;2023-06-14T03:38:54;10.40;99.90
21123;DHT22;10719;48.130;11.630;2023-06-14T03:41:20;10.40;99.90
21123;DHT22;10719;48.130;11.630;2023-06-14T03:43:46;10.40;99.90
21123;DHT22;10719;48.130;11.630;2023-06-14T03:46:12;10.40;99.90
21123;DHT22;10719;48.130;11.630;2023-06-14T03:48:37;10.40;99.90
21123;DHT22;10719;48.130;11.630;2023-06-14T03:51:04;10.40;99.90
21123;DHT22;10719;48.130;11.630;2023-06-14T03:53:30;10.40;99.90
21123;DHT22;10719;48.130;11.630;2023-06-14T03:55:56;10.50;99.90
21123;DHT22;10719;48.130;11.630;2023-06-14T03:58:22;10.60;99.90
21123;DHT22;10719;48.130;11.630;2023-06-14T04:00:48;10.60;99.90
21123;DHT22;10719;48.130;11.630;2023-06-14T04:03:13;10.60;99.90
21123;DHT22;10719;48.130;11.630;2023-06-14T04:05:41;10.70;99.90
21123;DHT22;10719;48.130;11.630;2023-06-14T04:08:08;10.80;99.90
21123;DHT22;10719;48.130;11.630;2023-06-14T04:10:34;10.90;99.90
21123;DHT22;10719;48.130;11.630;2023-06-14T04:13:00;10.90;99.90
21123;DHT22;10719;48.130;11.630;2023-06-14T04:15:26;10.90;99.90
21123;DHT22;10719;48.130;11.630;2023-06-14T04:17:53;11.00;99.90
21123;DHT22;10719;48.130;11.630;2023-06-14T04:20:22;11.00;99.90
21123;DHT22;10719;48.130;11.630;2023-06-14T04:22:50;10.90;99.90
21123;DHT22;10719;48.130;11.630;2023-06-14T04:25:16;10.90;99.90
21123;DHT22;10719;48.130;11.630;2023-06-14T04:27:42;10.90;99.90
21123;DHT22;10719;48.130;11.630;2023-06-14T04:30:09;10.90;99.90
21123;DHT22;10719;48.130;11.630;2023-06-14T04:32:35;10.90;99.90
21123;DHT22;10719;48.130;11.630;2023-06-14T04:35:05;11.00;99.90
21123;DHT22;10719;48.130;11.630;2023-06-14T04:37:31;11.10;99.90
21123;DHT22;10719;48.130;11.630;2023-06-14T04:39:57;11.20;99.90
21123;DHT22;10719;48.130;11.630;2023-06-14T04:42:23;11.30;99.90
21123;DHT22;10719;48.130;11.630;2023-06-14T04:44:56;11.40;99.90
21123;DHT22;10719;48.130;11.630;2023-06-14T04:47:22;11.50;99.90
21123;DHT22;10719;48.130;11.630;2023-06-14T04:49:50;11.50;99.90
21123;DHT22;10719;48.130;11.630;2023-06-14T04:52:18;11.60;99.90
21123;DHT22;10719;48.130;11.630;2023-06-14T04:54:46;11.60;99.90
21123;DHT22;10719;48.130;11.630;2023-06-14T04:57:12;11.70;99.90
21123;DHT22;10719;48.130;11.630;2023-06-14T04:59:43;11.70;99.90
21123;DHT22;10719;48.130;11.630;2023-06-14T05:02:10;11.70;99.90
21123;DHT22;10719;48.130;11.630;2023-06-14T05:04:38;11.90;99.90
21123;DHT22;10719;48.130;11.630;2023-06-14T05:07:07;11.90;99.90
21123;DHT22;10719;48.130;11.630;2023-06-14T05:09:34;12.00;99.90
21123;DHT22;10719;48.130;11.630;2023-06-14T05:12:00;12.00;99.90
21123;DHT22;10719;48.130;11.630;2023-06-14T05:14:26;12.10;99.90
21123;DHT22;10719;48.130;11.630;2023-06-14T05:16:52;12.20;99.90
21123;DHT22;10719;48.130;11.630;2023-06-14T05:19:18;12.30;99.90
21123;DHT22;10719;48.130;11.630;2023-06-14T05:21:46;12.40;99.90
21123;DHT22;10719;48.130;11.630;2023-06-14T05:24:13;12.50;99.90
21123;DHT22;10719;48.130;11.630;2023-06-14T05:26:38;12.60;99.90
21123;DHT22;10719;48.130;11.630;2023-06-14T05:29:04;12.80;99.90
21123;DHT22;10719;48.130;11.630;2023-06-14T05:31:29;12.90;99.90
21123;DHT22;10719;48.130;11.630;2023-06-14T05:33:55;13.00;99.90
21123;DHT22;10719;48.130;11.630;2023-06-14T05:36:21;13.10;99.90
21123;DHT22;10719;48.130;11.630;2023-06-14T05:38:46;13.30;99.90
21123;DHT22;10719;48.130;11.630;2023-06-14T05:41:12;13.30;99.90
21123;DHT22;10719;48.130;11.630;2023-06-14T05:43:38;13.40;99.90
21123;DHT22;10719;48.130;11.630;2023-06-14T05:46:03;13.50;99.90
21123;DHT22;10719;48.130;11.630;2023-06-14T05:48:30;13.60;99.90
21123;DHT22;10719;48.130;11.630;2023-06-14T05:50:56;13.70;99.90
21123;DHT22;10719;48.130;11.630;2023-06-14T05:53:22;13.70;99.90
21123;DHT22;10719;48.130;11.630;2023-06-14T05:55:47;13.80;99.90
21123;DHT22;10719;48.130;11.630;2023-06-14T05:58:13;13.80;99.90
21123;DHT22;10719;48.130;11.630;2023-06-14T06:00:39;13.90;99.90
21123;DHT22;10719;48.130;11.630;2023-06-14T06:03:05;13.90;99.90
21123;DHT22;10719;48.130;11.630;2023-06-14T06:05:33;14.10;99.90
21123;DHT22;10719;48.130;11.630;2023-06-14T06:07:59;14.10;99.90
21123;DHT22;10719;48.130;11.630;2023-06-14T06:10:25;14.10;99.90
21123;DHT22;10719;48.130;11.630;2023-06-14T06:12:51;14.20;99.90
21123;DHT22;10719;48.130;11.630;2023-06-14T06:15:17;14.30;99.90
21123;DHT22;10719;48.130;11.630;2023-06-14T06:17:44;14.50;99.90
21123;DHT22;10719;48.130;11.630;2023-06-14T06:20:10;14.60;99.90
21123;DHT22;10719;48.130;11.630;2023-06-14T06:22:37;14.70;99.90
21123;DHT22;10719;48.130;11.630;2023-06-14T06:25:03;14.80;99.90
21123;DHT22;10719;48.130;11.630;2023-06-14T06:27:28;14.90;99.90
21123;DHT22;10719;48.130;11.630;2023-06-14T06:29:54;15.10;99.90
21123;DHT22;10719;48.130;11.630;2023-06-14T06:32:19;15.10;99.90
21123;DHT22;10719;48.130;11.630;2023-06-14T06:34:45;15.10;99.90
21123;DHT22;10719;48.130;11.630;2023-06-14T06:37:11;15.20;99.90
21123;DHT22;10719;48.130;11.630;2023-06-14T06:39:37;15.30;99.90
21123;DHT22;10719;48.130;11.630;2023-06-14T06:42:02;15.40;99.90
21123;DHT22;10719;48.130;11.630;2023-06-14T06:44:28;15.40;99.90
21123;DHT22;10719;48.130;11.630;2023-06-14T06:46:54;15.50;99.90
21123;DHT22;10719;48.130;11.630;2023-06-14T06:49:19;15.60;99.90
21123;DHT22;10719;48.130;11.630;2023-06-14T06:52:02;15.70;99.90
21123;DHT22;10719;48.130;11.630;2023-06-14T06:54:28;15.80;99.90
21123;DHT22;10719;48.130;11.630;2023-06-14T06:56:54;15.80;99.90
21123;DHT22;10719;48.130;11.630;2023-06-14T06:59:20;16.00;99.90
21123;DHT22;10719;48.130;11.630;2023-06-14T07:01:46;16.20;99.90
21123;DHT22;10719;48.130;11.630;2023-06-14T07:04:12;16.30;99.90
21123;DHT22;10719;48.130;11.630;2023-06-14T07:06:38;16.40;99.90
21123;DHT22;10719;48.130;11.630;2023-06-14T07:09:03;16.40;99.90
21123;DHT22;10719;48.130;11.630;2023-06-14T07:11:30;16.40;99.90
21123;DHT22;10719;48.130;11.630;2023-06-14T07:13:56;16.60;99.90
21123;DHT22;10719;48.130;11.630;2023-06-14T07:16:22;16.70;99.90
21123;DHT22;10719;48.130;11.630;2023-06-14T07:18:47;16.80;99.90
21123;DHT22;10719;48.130;11.630;2023-06-14T07:21:13;17.00;99.90
21123;DHT22;10719;48.130;11.630;2023-06-14T07:23:39;17.10;99.90
21123;DHT22;10719;48.130;11.630;2023-06-14T07:26:04;17.20;99.90
21123;DHT22;10719;48.130;11.630;2023-06-14T07:28:30;17.40;99.90
21123;DHT22;10719;48.130;11.630;2023-06-14T07:30:56;17.40;99.90
21123;DHT22;10719;48.130;11.630;2023-06-14T07:33:21;17.50;99.90
21123;DHT22;10719;48.130;11.630;2023-06-14T07:35:47;17.50;99.90
21123;DHT22;10719;48.130;11.630;2023-06-14T07:38:13;17.60;99.90
21123;DHT22;10719;48.130;11.630;2023-06-14T07:40:39;17.70;99.90
21123;DHT22;10719;48.130;11.630;2023-06-14T07:43:04;17.90;99.90
21123;DHT22;10719;48.130;11.630;2023-06-14T07:45:30;18.00;99.90
21123;DHT22;10719;48.130;11.630;2023-06-14T07:47:56;18.10;99.90
21123;DHT22;10719;48.130;11.630;2023-06-14T07:50:22;18.10;99.90
21123;DHT22;10719;48.130;11.630;2023-06-14T07:52:47;18.30;99.90
21123;DHT22;10719;48.130;11.630;2023-06-14T07:55:14;18.30;99.90
21123;DHT22;10719;48.130;11.630;2023-06-14T07:57:40;18.50;99.90
21123;DHT22;10719;48.130;11.630;2023-06-14T08:00:06;18.60;99.90
21123;DHT22;10719;48.130;11.630;2023-06-14T08:02:32;18.70;99.90
21123;DHT22;10719;48.130;11.630;2023-06-14T08:04:58;18.70;99.90
21123;DHT22;10719;48.130;11.630;2023-06-14T08:07:24;19.00;99.90
21123;DHT22;10719;48.130;11.630;2023-06-14T08:09:50;19.20;99.90
21123;DHT22;10719;48.130;11.630;2023-06-14T08:12:15;19.50;99.90
21123;DHT22;10719;48.130;11.630;2023-06-14T08:14:42;19.80;99.90
21123;DHT22;10719;48.130;11.630;2023-06-14T08:17:07;19.90;99.90
21123;DHT22;10719;48.130;11.630;2023-06-14T08:19:33;20.10;99.90
21123;DHT22;10719;48.130;11.630;2023-06-14T08:21:59;20.30;99.90
21123;DHT22;10719;48.130;11.630;2023-06-14T08:24:25;20.30;99.90
21123;DHT22;10719;48.130;11.630;2023-06-14T08:26:53;20.40;99.90
21123;DHT22;10719;48.130;11.630;2023-06-14T08:29:18;20.70;99.90
21123;DHT22;10719;48.130;11.630;2023-06-14T08:31:45;20.80;99.90
21123;DHT22;10719;48.130;11.630;2023-06-14T08:34:10;20.80;99.90
21123;DHT22;10719;48.130;11.630;2023-06-14T08:36:36;21.00;99.90
21123;DHT22;10719;48.130;11.630;2023-06-14T08:39:02;21.10;99.90
21123;DHT22;10719;48.130;11.630;2023-06-14T08:41:28;21.20;99.90
21123;DHT22;10719;48.130;11.630;2023-06-14T08:43:56;21.30;99.90
21123;DHT22;10719;48.130;11.630;2023-06-14T08:46:23;21.30;99.90
21123;DHT22;10719;48.130;11.630;2023-06-14T08:48:51;21.50;99.90
21123;DHT22;10719;48.130;11.630;2023-06-14T08:51:20;21.30;99.90
21123;DHT22;10719;48.130;11.630;2023-06-14T08:53:53;21.60;99.90
21123;DHT22;10719;48.130;11.630;2023-06-14T08:56:26;21.80;99.90
21123;DHT22;10719;48.130;11.630;2023-06-14T08:58:53;21.80;99.90
21123;DHT22;10719;48.130;11.630;2023-06-14T09:01:20;22.00;99.90
21123;DHT22;10719;48.130;11.630;2023-06-14T09:03:48;22.10;99.90
21123;DHT22;10719;48.130;11.630;2023-06-14T09:06:14;22.20;99.90
21123;DHT22;10719;48.130;11.630;2023-06-14T09:08:42;22.10;99.90
21123;DHT22;10719;48.130;11.630;2023-06-14T09:11:11;22.30;99.90
21123;DHT22;10719;48.130;11.630;2023-06-14T09:13:37;22.60;99.90
21123;DHT22;10719;48.130;11.630;2023-06-14T09:16:04;22.60;99.90
21123;DHT22;10719;48.130;11.630;2023-06-14T09:18:43;22.50;99.90
21123;DHT22;10719;48.130;11.630;2023-06-14T09:21:11;22.20;99.90
21123;DHT22;10719;48.130;11.630;2023-06-14T09:23:45;21.80;99.90
21123;DHT22;10719;48.130;11.630;2023-06-14T09:26:16;22.10;99.90
21123;DHT22;10719;48.130;11.630;2023-06-14T09:28:46;22.40;99.90
21123;DHT22;10719;48.130;11.630;2023-06-14T09:31:14;22.40;99.90
21123;DHT22;10719;48.130;11.630;2023-06-14T09:33:43;22.90;99.90
21123;DHT22;10719;48.130;11.630;2023-06-14T09:36:17;23.00;99.90
21123;DHT22;10719;48.130;11.630;2023-06-14T09:39:03;23.40;99.90
21123;DHT22;10719;48.130;11.630;2023-06-14T09:41:34;23.70;99.90
21123;DHT22;10719;48.130;11.630;2023-06-14T09:44:00;24.10;99.90
21123;DHT22;10719;48.130;11.630;2023-06-14T09:46:28;23.90;99.90
21123;DHT22;10719;48.130;11.630;2023-06-14T09:48:55;23.70;99.90
21123;DHT22;10719;48.130;11.630;2023-06-14T09:51:22;23.80;99.90
21123;DHT22;10719;48.130;11.630;2023-06-14T09:53:49;23.90;99.90
21123;DHT22;10719;48.130;11.630;2023-06-14T09:56:36;23.70;99.90
21123;DHT22;10719;48.130;11.630;2023-06-14T09:59:04;24.00;99.50
21123;DHT22;10719;48.130;11.630;2023-06-14T10:01:31;24.10;98.10
21123;DHT22;10719;48.130;11.630;2023-06-14T10:04:03;24.20;99.20
21123;DHT22;10719;48.130;11.630;2023-06-14T10:06:31;24.30;98.70
21123;DHT22;10719;48.130;11.630;2023-06-14T10:08:58;24.20;99.90
21123;DHT22;10719;48.130;11.630;2023-06-14T10:11:27;24.80;99.50
21123;DHT22;10719;48.130;11.630;2023-06-14T10:13:57;24.80;98.60
21123;DHT22;10719;48.130;11.630;2023-06-14T10:22:10;25.00;98.60
21123;DHT22;10719;48.130;11.630;2023-06-14T10:24:46;25.10;97.80
21123;DHT22;10719;48.130;11.630;2023-06-14T10:27:14;24.40;97.20
21123;DHT22;10719;48.130;11.630;2023-06-14T10:32:23;25.10;97.60
21123;DHT22;10719;48.130;11.630;2023-06-14T10:35:06;25.40;97.10
21123;DHT22;10719;48.130;11.630;2023-06-14T10:37:34;25.20;97.20
21123;DHT22;10719;48.130;11.630;2023-06-14T10:40:01;25.50;97.40
21123;DHT22;10719;48.130;11.630;2023-06-14T10:42:33;25.70;97.40
21123;DHT22;10719;48.130;11.630;2023-06-14T10:44:59;25.10;98.80
21123;DHT22;10719;48.130;11.630;2023-06-14T10:47:33;25.30;99.50
21123;DHT22;10719;48.130;11.630;2023-06-14T10:50:05;24.70;99.90
21123;DHT22;10719;48.130;11.630;2023-06-14T10:52:34;25.20;99.90
21123;DHT22;10719;48.130;11.630;2023-06-14T10:55:17;25.50;98.10
21123;DHT22;10719;48.130;11.630;2023-06-14T10:57:46;25.70;98.50
21123;DHT22;10719;48.130;11.630;2023-06-14T11:00:14;25.90;97.80
21123;DHT22;10719;48.130;11.630;2023-06-14T11:05:30;25.70;98.80
21123;DHT22;10719;48.130;11.630;2023-06-14T11:10:50;26.30;97.60
21123;DHT22;10719;48.130;11.630;2023-06-14T11:13:17;25.80;96.90
21123;DHT22;10719;48.130;11.630;2023-06-14T11:15:47;26.00;97.90
21123;DHT22;10719;48.130;11.630;2023-06-14T11:18:13;26.30;97.60
21123;DHT22;10719;48.130;11.630;2023-06-14T11:20:40;26.40;98.60
21123;DHT22;10719;48.130;11.630;2023-06-14T11:23:05;26.70;98.00
21123;DHT22;10719;48.130;11.630;2023-06-14T11:25:31;26.90;97.40
21123;DHT22;10719;48.130;11.630;2023-06-14T11:27:57;26.70;97.10
21123;DHT22;10719;48.130;11.630;2023-06-14T11:30:24;26.70;95.80
21123;DHT22;10719;48.130;11.630;2023-06-14T11:32:52;26.70;95.50
21123;DHT22;10719;48.130;11.630;2023-06-14T11:35:19;26.40;95.90
21123;DHT22;10719;48.130;11.630;2023-06-14T11:37:45;25.80;96.20
21123;DHT22;10719;48.130;11.630;2023-06-14T11:40:11;26.00;95.60
21123;DHT22;10719;48.130;11.630;2023-06-14T11:42:39;26.60;94.90
21123;DHT22;10719;48.130;11.630;2023-06-14T11:45:09;26.10;94.00
21123;DHT22;10719;48.130;11.630;2023-06-14T11:47:36;26.10;95.30
21123;DHT22;10719;48.130;11.630;2023-06-14T11:50:03;26.80;94.20
21123;DHT22;10719;48.130;11.630;2023-06-14T11:52:30;27.60;94.90
21123;DHT22;10719;48.130;11.630;2023-06-14T11:54:56;28.10;93.40
21123;DHT22;10719;48.130;11.630;2023-06-14T11:57:22;27.90;93.20
21123;DHT22;10719;48.130;11.630;2023-06-14T11:59:48;27.70;93.20
21123;DHT22;10719;48.130;11.630;2023-06-14T12:02:15;28.00;92.20
21123;DHT22;10719;48.130;11.630;2023-06-14T12:04:42;28.10;91.70
21123;DHT22;10719;48.130;11.630;2023-06-14T12:07:12;28.40;93.60
21123;DHT22;10719;48.130;11.630;2023-06-14T12:10:26;28.40;92.90
21123;DHT22;10719;48.130;11.630;2023-06-14T12:12:26;28.40;92.80
21123;DHT22;10719;48.130;11.630;2023-06-14T12:14:52;28.60;92.80
21123;DHT22;10719;48.130;11.630;2023-06-14T12:17:19;27.20;92.60
21123;DHT22;10719;48.130;11.630;2023-06-14T12:19:46;26.10;93.90
21123;DHT22;10719;48.130;11.630;2023-06-14T12:22:14;24.90;94.90
21123;DHT22;10719;48.130;11.630;2023-06-14T12:24:44;25.40;95.20
21123;DHT22;10719;48.130;11.630;2023-06-14T12:27:10;26.80;94.00
21123;DHT22;10719;48.130;11.630;2023-06-14T12:29:37;28.10;93.50
21123;DHT22;10719;48.130;11.630;2023-06-14T12:32:03;28.80;91.90
21123;DHT22;10719;48.130;11.630;2023-06-14T12:34:29;29.40;90.90
21123;DHT22;10719;48.130;11.630;2023-06-14T12:36:56;30.00;90.40
21123;DHT22;10719;48.130;11.630;2023-06-14T12:39:22;29.80;91.60
21123;DHT22;10719;48.130;11.630;2023-06-14T12:41:48;30.30;88.60
21123;DHT22;10719;48.130;11.630;2023-06-14T12:44:14;30.50;89.70
21123;DHT22;10719;48.130;11.630;2023-06-14T12:46:41;29.50;90.00
21123;DHT22;10719;48.130;11.630;2023-06-14T12:49:09;30.20;91.80
21123;DHT22;10719;48.130;11.630;2023-06-14T12:51:35;30.70;90.10
21123;DHT22;10719;48.130;11.630;2023-06-14T12:54:00;31.40;90.10
21123;DHT22;10719;48.130;11.630;2023-06-14T12:56:26;30.20;88.90
21123;DHT22;10719;48.130;11.630;2023-06-14T12:58:52;28.70;88.90
21123;DHT22;10719;48.130;11.630;2023-06-14T13:01:18;27.70;91.60
21123;DHT22;10719;48.130;11.630;2023-06-14T13:03:44;27.30;90.90
21123;DHT22;10719;48.130;11.630;2023-06-14T13:06:09;27.80;91.10
21123;DHT22;10719;48.130;11.630;2023-06-14T13:08:35;28.70;91.50
21123;DHT22;10719;48.130;11.630;2023-06-14T13:11:01;30.20;90.80
21123;DHT22;10719;48.130;11.630;2023-06-14T13:13:26;30.10;87.30
21123;DHT22;10719;48.130;11.630;2023-06-14T13:15:52;30.30;86.90
21123;DHT22;10719;48.130;11.630;2023-06-14T13:18:17;30.50;88.60
21123;DHT22;10719;48.130;11.630;2023-06-14T13:20:43;30.10;85.30
21123;DHT22;10719;48.130;11.630;2023-06-14T13:23:09;29.80;88.30
21123;DHT22;10719;48.130;11.630;2023-06-14T13:25:36;30.70;89.30
21123;DHT22;10719;48.130;11.630;2023-06-14T13:28:03;30.90;89.20
21123;DHT22;10719;48.130;11.630;2023-06-14T13:30:29;30.90;85.50
21123;DHT22;10719;48.130;11.630;2023-06-14T13:32:55;30.80;82.90
21123;DHT22;10719;48.130;11.630;2023-06-14T13:35:21;30.10;86.40
21123;DHT22;10719;48.130;11.630;2023-06-14T13:37:47;29.30;86.00
21123;DHT22;10719;48.130;11.630;2023-06-14T13:40:13;28.40;89.90
21123;DHT22;10719;48.130;11.630;2023-06-14T13:42:39;28.60;88.20
21123;DHT22;10719;48.130;11.630;2023-06-14T13:45:06;29.50;86.60
21123;DHT22;10719;48.130;11.630;2023-06-14T13:47:32;29.80;82.70
21123;DHT22;10719;48.130;11.630;2023-06-14T13:49:57;30.00;84.50
21123;DHT22;10719;48.130;11.630;2023-06-14T13:52:23;31.10;87.10
21123;DHT22;10719;48.130;11.630;2023-06-14T13:54:49;29.80;82.80
21123;DHT22;10719;48.130;11.630;2023-06-14T13:57:15;30.20;86.90
21123;DHT22;10719;48.130;11.630;2023-06-14T13:59:41;30.50;84.80
21123;DHT22;10719;48.130;11.630;2023-06-14T14:02:09;30.40;86.10
21123;DHT22;10719;48.130;11.630;2023-06-14T14:04:35;31.00;84.80
21123;DHT22;10719;48.130;11.630;2023-06-14T14:07:04;30.40;80.30
21123;DHT22;10719;48.130;11.630;2023-06-14T14:09:31;30.40;83.60
21123;DHT22;10719;48.130;11.630;2023-06-14T14:11:58;30.30;80.30
21123;DHT22;10719;48.130;11.630;2023-06-14T14:14:24;31.70;80.90
21123;DHT22;10719;48.130;11.630;2023-06-14T14:16:50;31.10;79.00
21123;DHT22;10719;48.130;11.630;2023-06-14T14:19:22;31.00;79.90
21123;DHT22;10719;48.130;11.630;2023-06-14T14:21:47;31.80;79.70
21123;DHT22;10719;48.130;11.630;2023-06-14T14:24:13;31.10;80.90
21123;DHT22;10719;48.130;11.630;2023-06-14T14:26:39;31.10;81.90
21123;DHT22;10719;48.130;11.630;2023-06-14T14:29:05;30.80;81.90
21123;DHT22;10719;48.130;11.630;2023-06-14T14:31:30;30.10;82.10
21123;DHT22;10719;48.130;11.630;2023-06-14T14:33:56;28.50;84.70
21123;DHT22;10719;48.130;11.630;2023-06-14T14:36:22;28.60;82.70
21123;DHT22;10719;48.130;11.630;2023-06-14T14:38:47;29.30;84.30
21123;DHT22;10719;48.130;11.630;2023-06-14T14:41:13;30.10;82.10
21123;DHT22;10719;48.130;11.630;2023-06-14T14:43:39;31.10;81.80
21123;DHT22;10719;48.130;11.630;2023-06-14T14:46:05;31.50;82.20
21123;DHT22;10719;48.130;11.630;2023-06-14T14:48:30;30.30;79.30
21123;DHT22;10719;48.130;11.630;2023-06-14T14:50:56;30.10;83.10
21123;DHT22;10719;48.130;11.630;2023-06-14T14:53:22;30.50;81.50
21123;DHT22;10719;48.130;11.630;2023-06-14T14:55:47;31.00;82.80
21123;DHT22;10719;48.130;11.630;2023-06-14T14:58:13;30.10;79.40
21123;DHT22;10719;48.130;11.630;2023-06-14T15:00:42;30.60;83.30
21123;DHT22;10719;48.130;11.630;2023-06-14T15:03:07;31.20;82.60
21123;DHT22;10719;48.130;11.630;2023-06-14T15:05:33;31.40;80.60
21123;DHT22;10719;48.130;11.630;2023-06-14T15:07:59;31.10;81.60
21123;DHT22;10719;48.130;11.630;2023-06-14T15:10:24;31.20;82.80
21123;DHT22;10719;48.130;11.630;2023-06-14T15:12:50;30.50;82.30
21123;DHT22;10719;48.130;11.630;2023-06-14T15:15:15;31.00;83.60
21123;DHT22;10719;48.130;11.630;2023-06-14T15:17:41;30.80;83.20
21123;DHT22;10719;48.130;11.630;2023-06-14T15:20:07;30.20;82.40
21123;DHT22;10719;48.130;11.630;2023-06-14T15:22:33;30.50;82.90
21123;DHT22;10719;48.130;11.630;2023-06-14T15:24:59;30.50;82.20
21123;DHT22;10719;48.130;11.630;2023-06-14T15:27:24;30.70;82.00
21123;DHT22;10719;48.130;11.630;2023-06-14T15:29:50;30.50;80.50
21123;DHT22;10719;48.130;11.630;2023-06-14T15:32:16;29.60;82.30